sensor_id;sensor_type;location;lat;lon;timestamp;P1;durP1;ratioP1;P2;durP2;ratioP2
2055;SDS011;1033;52.560;13.374;2022-08-19T00:02:04;15.57;;;13.90;;
2055;SDS011;1033;52.560;13.374;2022-08-19T00:04:34;15.93;;;13.57;;
2055;SDS011;1033;52.560;13.374;2022-08-19T00:07:06;17.57;;;15.83;;
2055;SDS011;1033;52.560;13.374;2022-08-19T00:09:35;14.77;;;13.20;;
2055;SDS011;1033;52.560;13.374;2022-08-19T00:12:04;15.10;;;13.60;;
2055;SDS011;1033;52.560;13.374;2022-08-19T00:14:34;16.83;;;15.23;;
2055;SDS011;1033;52.560;13.374;2022-08-19T00:17:05;15.60;;;14.03;;
2055;SDS011;1033;52.560;13.374;2022-08-19T00:19:36;15.97;;;14.47;;
2055;SDS011;1033;52.560;13.374;2022-08-19T00:22:07;19.30;;;13.97;;
2055;SDS011;1033;52.560;13.374;2022-08-19T00:24:36;14.83;;;13.43;;
2055;SDS011;1033;52.560;13.374;2022-08-19T00:27:16;15.83;;;14.33;;
2055;SDS011;1033;52.560;13.374;2022-08-19T00:29:52;14.53;;;12.90;;
2055;SDS011;1033;52.560;13.374;2022-08-19T00:32:21;15.30;;;13.80;;
2055;SDS011;1033;52.560;13.374;2022-08-19T00:34:52;15.20;;;13.20;;
2055;SDS011;1033;52.560;13.374;2022-08-19T00:37:23;15.63;;;13.60;;
2055;SDS011;1033;52.560;13.374;2022-08-19T00:39:53;15.07;;;13.43;;
2055;SDS011;1033;52.560;13.374;2022-08-19T00:42:23;15.57;;;12.80;;
2055;SDS011;1033;52.560;13.374;2022-08-19T00:44:54;16.10;;;14.60;;
2055;SDS011;1033;52.560;13.374;2022-08-19T00:47:24;16.40;;;14.80;;
2055;SDS011;1033;52.560;13.374;2022-08-19T00:49:54;18.53;;;16.60;;
2055;SDS011;1033;52.560;13.374;2022-08-19T00:52:28;16.40;;;14.70;;
2055;SDS011;1033;52.560;13.374;2022-08-19T00:55:02;19.17;;;15.80;;
2055;SDS011;1033;52.560;13.374;2022-08-19T00:57:37;20.73;;;18.60;;
2055;SDS011;1033;52.560;13.374;2022-08-19T01:00:11;17.30;;;15.60;;
2055;SDS011;1033;52.560;13.374;2022-08-19T01:02:45;18.53;;;16.57;;
2055;SDS011;1033;52.560;13.374;2022-08-19T01:05:17;20.60;;;18.30;;
2055;SDS011;1033;52.560;13.374;2022-08-19T01:07:52;17.90;;;16.20;;
2055;SDS011;1033;52.560;13.374;2022-08-19T01:10:24;18.47;;;16.57;;
2055;SDS011;1033;52.560;13.374;2022-08-19T01:13:03;15.67;;;14.17;;
2055;SDS011;1033;52.560;13.374;2022-08-19T01:15:34;15.17;;;13.57;;
2055;SDS011;1033;52.560;13.374;2022-08-19T01:18:11;16.23;;;14.50;;
2055;SDS011;1033;52.560;13.374;2022-08-19T01:20:43;14.27;;;13.00;;
2055;SDS011;1033;52.560;13.374;2022-08-19T01:23:14;15.77;;;14.07;;
2055;SDS011;1033;52.560;13.374;2022-08-19T01:25:45;13.60;;;12.40;;
2055;SDS011;1033;52.560;13.374;2022-08-19T01:28:18;14.90;;;13.40;;
2055;SDS011;1033;52.560;13.374;2022-08-19T01:31:06;15.20;;;13.70;;
2055;SDS011;1033;52.560;13.374;2022-08-19T01:33:54;14.10;;;12.70;;
2055;SDS011;1033;52.560;13.374;2022-08-19T01:36:26;16.60;;;14.90;;
2055;SDS011;1033;52.560;13.374;2022-08-19T01:39:02;13.10;;;11.73;;
2055;SDS011;1033;52.560;13.374;2022-08-19T01:41:37;16.87;;;14.80;;
2055;SDS011;1033;52.560;13.374;2022-08-19T01:44:06;14.23;;;12.57;;
2055;SDS011;1033;52.560;13.374;2022-08-19T01:46:45;15.53;;;12.87;;
2055;SDS011;1033;52.560;13.374;2022-08-19T01:49:16;16.50;;;13.73;;
2055;SDS011;1033;52.560;13.374;2022-08-19T01:51:49;19.37;;;14.30;;
2055;SDS011;1033;52.560;13.374;2022-08-19T01:54:22;16.40;;;14.70;;
2055;SDS011;1033;52.560;13.374;2022-08-19T01:56:56;15.07;;;13.57;;
2055;SDS011;1033;52.560;13.374;2022-08-19T01:59:30;15.20;;;13.60;;
2055;SDS011;1033;52.560;13.374;2022-08-19T02:02:03;15.40;;;13.57;;
2055;SDS011;1033;52.560;13.374;2022-08-19T02:04:35;18.53;;;13.30;;
2055;SDS011;1033;52.560;13.374;2022-08-19T02:07:06;15.73;;;14.27;;
2055;SDS011;1033;52.560;13.374;2022-08-19T02:09:37;13.80;;;12.40;;
2055;SDS011;1033;52.560;13.374;2022-08-19T02:12:06;18.23;;;15.80;;
2055;SDS011;1033;52.560;13.374;2022-08-19T02:14:36;18.63;;;16.83;;
2055;SDS011;1033;52.560;13.374;2022-08-19T02:17:05;15.93;;;14.27;;
2055;SDS011;1033;52.560;13.374;2022-08-19T02:19:34;19.60;;;17.10;;
2055;SDS011;1033;52.560;13.374;2022-08-19T02:22:06;16.40;;;14.73;;
2055;SDS011;1033;52.560;13.374;2022-08-19T02:24:36;15.67;;;14.20;;
2055;SDS011;1033;52.560;13.374;2022-08-19T02:27:06;14.03;;;12.67;;
2055;SDS011;1033;52.560;13.374;2022-08-19T02:29:35;17.20;;;14.60;;
2055;SDS011;1033;52.560;13.374;2022-08-19T02:32:04;17.13;;;15.30;;
2055;SDS011;1033;52.560;13.374;2022-08-19T02:34:34;18.90;;;14.33;;
2055;SDS011;1033;52.560;13.374;2022-08-19T02:37:03;18.90;;;16.27;;
2055;SDS011;1033;52.560;13.374;2022-08-19T02:39:32;14.90;;;13.40;;
2055;SDS011;1033;52.560;13.374;2022-08-19T02:42:01;16.93;;;14.37;;
2055;SDS011;1033;52.560;13.374;2022-08-19T02:44:31;16.93;;;15.20;;
2055;SDS011;1033;52.560;13.374;2022-08-19T02:47:00;16.43;;;14.10;;
2055;SDS011;1033;52.560;13.374;2022-08-19T02:49:30;17.87;;;15.97;;
2055;SDS011;1033;52.560;13.374;2022-08-19T02:52:00;16.80;;;15.20;;
2055;SDS011;1033;52.560;13.374;2022-08-19T02:54:29;16.50;;;14.93;;
2055;SDS011;1033;52.560;13.374;2022-08-19T02:56:58;19.37;;;17.47;;
2055;SDS011;1033;52.560;13.374;2022-08-19T02:59:30;16.47;;;14.60;;
2055;SDS011;1033;52.560;13.374;2022-08-19T03:02:00;18.90;;;17.00;;
2055;SDS011;1033;52.560;13.374;2022-08-19T03:04:30;19.00;;;17.00;;
2055;SDS011;1033;52.560;13.374;2022-08-19T03:06:59;23.23;;;17.50;;
2055;SDS011;1033;52.560;13.374;2022-08-19T03:09:36;25.07;;;18.80;;
2055;SDS011;1033;52.560;13.374;2022-08-19T03:12:06;22.63;;;20.23;;
2055;SDS011;1033;52.560;13.374;2022-08-19T03:14:37;22.80;;;20.40;;
2055;SDS011;1033;52.560;13.374;2022-08-19T03:17:06;22.87;;;20.47;;
2055;SDS011;1033;52.560;13.374;2022-08-19T03:19:36;20.13;;;18.10;;
2055;SDS011;1033;52.560;13.374;2022-08-19T03:22:05;20.40;;;17.47;;
2055;SDS011;1033;52.560;13.374;2022-08-19T03:24:34;20.03;;;16.20;;
2055;SDS011;1033;52.560;13.374;2022-08-19T03:27:04;17.90;;;16.10;;
2055;SDS011;1033;52.560;13.374;2022-08-19T03:29:33;19.33;;;16.53;;
2055;SDS011;1033;52.560;13.374;2022-08-19T03:32:09;17.43;;;15.60;;
2055;SDS011;1033;52.560;13.374;2022-08-19T03:34:58;18.03;;;15.40;;
2055;SDS011;1033;52.560;13.374;2022-08-19T03:37:27;18.00;;;16.20;;
2055;SDS011;1033;52.560;13.374;2022-08-19T03:39:56;18.33;;;16.00;;
2055;SDS011;1033;52.560;13.374;2022-08-19T03:42:25;20.17;;;17.10;;
2055;SDS011;1033;52.560;13.374;2022-08-19T03:45:15;20.70;;;17.30;;
2055;SDS011;1033;52.560;13.374;2022-08-19T03:47:46;16.67;;;14.90;;
2055;SDS011;1033;52.560;13.374;2022-08-19T03:50:15;17.03;;;14.60;;
2055;SDS011;1033;52.560;13.374;2022-08-19T03:52:47;20.37;;;16.73;;
2055;SDS011;1033;52.560;13.374;2022-08-19T03:55:18;20.23;;;16.87;;
2055;SDS011;1033;52.560;13.374;2022-08-19T03:57:47;18.50;;;16.60;;
2055;SDS011;1033;52.560;13.374;2022-08-19T04:00:18;17.13;;;15.53;;
2055;SDS011;1033;52.560;13.374;2022-08-19T04:02:47;19.43;;;17.33;;
2055;SDS011;1033;52.560;13.374;2022-08-19T04:05:25;18.13;;;16.27;;
2055;SDS011;1033;52.560;13.374;2022-08-19T04:07:56;16.80;;;15.00;;
2055;SDS011;1033;52.560;13.374;2022-08-19T04:10:25;17.33;;;15.63;;
2055;SDS011;1033;52.560;13.374;2022-08-19T04:12:55;19.50;;;16.63;;
2055;SDS011;1033;52.560;13.374;2022-08-19T04:15:25;18.77;;;16.60;;
2055;SDS011;1033;52.560;13.374;2022-08-19T04:17:55;17.77;;;15.87;;
2055;SDS011;1033;52.560;13.374;2022-08-19T04:20:24;19.07;;;17.10;;
2055;SDS011;1033;52.560;13.374;2022-08-19T04:22:53;19.90;;;17.67;;
2055;SDS011;1033;52.560;13.374;2022-08-19T04:25:24;18.70;;;16.70;;
2055;SDS011;1033;52.560;13.374;2022-08-19T04:27:53;17.17;;;14.83;;
2055;SDS011;1033;52.560;13.374;2022-08-19T04:30:22;20.97;;;16.30;;
2055;SDS011;1033;52.560;13.374;2022-08-19T04:32:53;18.60;;;16.70;;
2055;SDS011;1033;52.560;13.374;2022-08-19T04:35:22;18.77;;;16.80;;
2055;SDS011;1033;52.560;13.374;2022-08-19T04:37:51;19.40;;;17.20;;
2055;SDS011;1033;52.560;13.374;2022-08-19T04:40:20;19.27;;;17.17;;
2055;SDS011;1033;52.560;13.374;2022-08-19T04:43:06;26.07;;;17.83;;
2055;SDS011;1033;52.560;13.374;2022-08-19T04:45:41;17.17;;;15.33;;
2055;SDS011;1033;52.560;13.374;2022-08-19T04:48:12;18.90;;;16.80;;
2055;SDS011;1033;52.560;13.374;2022-08-19T04:50:53;17.60;;;14.87;;
2055;SDS011;1033;52.560;13.374;2022-08-19T04:53:25;16.20;;;14.57;;
2055;SDS011;1033;52.560;13.374;2022-08-19T04:56:04;18.40;;;16.33;;
2055;SDS011;1033;52.560;13.374;2022-08-19T04:58:37;17.77;;;15.87;;
2055;SDS011;1033;52.560;13.374;2022-08-19T05:01:09;18.17;;;16.17;;
2055;SDS011;1033;52.560;13.374;2022-08-19T05:03:42;26.83;;;17.60;;
2055;SDS011;1033;52.560;13.374;2022-08-19T05:06:12;15.83;;;14.23;;
2055;SDS011;1033;52.560;13.374;2022-08-19T05:08:43;21.53;;;18.10;;
2055;SDS011;1033;52.560;13.374;2022-08-19T05:11:14;20.53;;;18.40;;
2055;SDS011;1033;52.560;13.374;2022-08-19T05:13:52;20.70;;;15.10;;
2055;SDS011;1033;52.560;13.374;2022-08-19T05:16:21;15.43;;;13.90;;
2055;SDS011;1033;52.560;13.374;2022-08-19T05:18:54;15.87;;;14.17;;
2055;SDS011;1033;52.560;13.374;2022-08-19T05:21:41;16.23;;;14.57;;
2055;SDS011;1033;52.560;13.374;2022-08-19T05:24:29;16.80;;;14.93;;
2055;SDS011;1033;52.560;13.374;2022-08-19T05:27:01;17.53;;;15.63;;
2055;SDS011;1033;52.560;13.374;2022-08-19T05:29:31;18.80;;;14.53;;
2055;SDS011;1033;52.560;13.374;2022-08-19T05:32:02;16.47;;;14.73;;
2055;SDS011;1033;52.560;13.374;2022-08-19T05:34:37;16.37;;;14.63;;
2055;SDS011;1033;52.560;13.374;2022-08-19T05:37:06;14.63;;;13.10;;
2055;SDS011;1033;52.560;13.374;2022-08-19T05:39:36;16.30;;;14.80;;
2055;SDS011;1033;52.560;13.374;2022-08-19T05:42:08;21.10;;;16.20;;
2055;SDS011;1033;52.560;13.374;2022-08-19T05:44:40;18.03;;;16.00;;
2055;SDS011;1033;52.560;13.374;2022-08-19T05:47:12;15.63;;;14.13;;
2055;SDS011;1033;52.560;13.374;2022-08-19T05:49:43;16.80;;;15.10;;
2055;SDS011;1033;52.560;13.374;2022-08-19T05:52:13;16.30;;;14.70;;
2055;SDS011;1033;52.560;13.374;2022-08-19T05:54:44;14.33;;;12.83;;
2055;SDS011;1033;52.560;13.374;2022-08-19T05:57:17;17.67;;;15.93;;
2055;SDS011;1033;52.560;13.374;2022-08-19T05:59:47;15.50;;;14.00;;
2055;SDS011;1033;52.560;13.374;2022-08-19T06:02:23;18.63;;;16.87;;
2055;SDS011;1033;52.560;13.374;2022-08-19T06:04:54;16.97;;;14.63;;
2055;SDS011;1033;52.560;13.374;2022-08-19T06:07:23;16.23;;;14.63;;
2055;SDS011;1033;52.560;13.374;2022-08-19T06:09:54;17.27;;;15.47;;
2055;SDS011;1033;52.560;13.374;2022-08-19T06:12:26;16.93;;;15.20;;
2055;SDS011;1033;52.560;13.374;2022-08-19T06:14:58;20.90;;;14.80;;
2055;SDS011;1033;52.560;13.374;2022-08-19T06:17:28;17.50;;;14.07;;
2055;SDS011;1033;52.560;13.374;2022-08-19T06:20:00;16.63;;;15.00;;
2055;SDS011;1033;52.560;13.374;2022-08-19T06:22:30;16.37;;;14.77;;
2055;SDS011;1033;52.560;13.374;2022-08-19T06:24:59;15.53;;;13.93;;
2055;SDS011;1033;52.560;13.374;2022-08-19T06:27:28;17.10;;;15.30;;
2055;SDS011;1033;52.560;13.374;2022-08-19T06:29:59;16.90;;;14.87;;
2055;SDS011;1033;52.560;13.374;2022-08-19T06:32:28;17.63;;;15.80;;
2055;SDS011;1033;52.560;13.374;2022-08-19T06:35:09;17.73;;;16.03;;
2055;SDS011;1033;52.560;13.374;2022-08-19T06:37:41;21.33;;;17.60;;
2055;SDS011;1033;52.560;13.374;2022-08-19T06:40:11;16.90;;;15.23;;
2055;SDS011;1033;52.560;13.374;2022-08-19T06:42:40;19.43;;;16.37;;
2055;SDS011;1033;52.560;13.374;2022-08-19T06:45:20;17.57;;;15.90;;
2055;SDS011;1033;52.560;13.374;2022-08-19T06:47:50;20.83;;;16.90;;
2055;SDS011;1033;52.560;13.374;2022-08-19T06:50:24;20.00;;;18.00;;
2055;SDS011;1033;52.560;13.374;2022-08-19T06:52:53;19.33;;;17.50;;
2055;SDS011;1033;52.560;13.374;2022-08-19T06:55:23;19.30;;;17.43;;
2055;SDS011;1033;52.560;13.374;2022-08-19T06:58:01;18.90;;;17.10;;
2055;SDS011;1033;52.560;13.374;2022-08-19T07:00:30;19.60;;;17.50;;
2055;SDS011;1033;52.560;13.374;2022-08-19T07:03:00;19.80;;;17.80;;
2055;SDS011;1033;52.560;13.374;2022-08-19T07:05:39;20.47;;;18.37;;
2055;SDS011;1033;52.560;13.374;2022-08-19T07:08:11;20.07;;;18.10;;
2055;SDS011;1033;52.560;13.374;2022-08-19T07:10:44;20.17;;;18.17;;
2055;SDS011;1033;52.560;13.374;2022-08-19T07:13:15;20.43;;;18.30;;
2055;SDS011;1033;52.560;13.374;2022-08-19T07:15:45;21.10;;;19.00;;
2055;SDS011;1033;52.560;13.374;2022-08-19T07:18:17;20.63;;;18.67;;
2055;SDS011;1033;52.560;13.374;2022-08-19T07:20:49;18.93;;;16.93;;
2055;SDS011;1033;52.560;13.374;2022-08-19T07:23:18;18.70;;;16.80;;
2055;SDS011;1033;52.560;13.374;2022-08-19T07:25:49;21.93;;;19.77;;
2055;SDS011;1033;52.560;13.374;2022-08-19T07:28:18;23.20;;;18.37;;
2055;SDS011;1033;52.560;13.374;2022-08-19T07:30:50;20.50;;;18.53;;
2055;SDS011;1033;52.560;13.374;2022-08-19T07:33:20;21.67;;;19.33;;
2055;SDS011;1033;52.560;13.374;2022-08-19T07:35:54;21.80;;;19.77;;
2055;SDS011;1033;52.560;13.374;2022-08-19T07:38:23;19.53;;;17.70;;
2055;SDS011;1033;52.560;13.374;2022-08-19T07:40:53;19.63;;;17.63;;
2055;SDS011;1033;52.560;13.374;2022-08-19T07:43:22;21.30;;;19.30;;
2055;SDS011;1033;52.560;13.374;2022-08-19T07:46:00;19.93;;;17.70;;
2055;SDS011;1033;52.560;13.374;2022-08-19T07:48:29;22.50;;;19.50;;
2055;SDS011;1033;52.560;13.374;2022-08-19T07:51:00;20.73;;;18.83;;
2055;SDS011;1033;52.560;13.374;2022-08-19T07:53:35;20.10;;;18.10;;
2055;SDS011;1033;52.560;13.374;2022-08-19T07:56:05;22.17;;;19.70;;
2055;SDS011;1033;52.560;13.374;2022-08-19T07:58:37;21.50;;;19.40;;
2055;SDS011;1033;52.560;13.374;2022-08-19T08:01:10;21.50;;;19.30;;
2055;SDS011;1033;52.560;13.374;2022-08-19T08:03:43;19.67;;;17.73;;
2055;SDS011;1033;52.560;13.374;2022-08-19T08:06:33;20.83;;;18.70;;
2055;SDS011;1033;52.560;13.374;2022-08-19T08:09:21;19.83;;;17.93;;
2055;SDS011;1033;52.560;13.374;2022-08-19T08:11:55;22.77;;;20.20;;
2055;SDS011;1033;52.560;13.374;2022-08-19T08:14:45;21.30;;;19.20;;
2055;SDS011;1033;52.560;13.374;2022-08-19T08:17:23;20.33;;;18.33;;
2055;SDS011;1033;52.560;13.374;2022-08-19T08:20:14;23.77;;;21.53;;
2055;SDS011;1033;52.560;13.374;2022-08-19T08:22:45;21.93;;;19.67;;
2055;SDS011;1033;52.560;13.374;2022-08-19T08:25:33;23.60;;;19.47;;
2055;SDS011;1033;52.560;13.374;2022-08-19T08:28:04;21.90;;;19.60;;
2055;SDS011;1033;52.560;13.374;2022-08-19T08:30:43;22.43;;;20.23;;
2055;SDS011;1033;52.560;13.374;2022-08-19T08:33:17;23.70;;;20.47;;
2055;SDS011;1033;52.560;13.374;2022-08-19T08:36:00;22.67;;;20.47;;
2055;SDS011;1033;52.560;13.374;2022-08-19T08:38:33;21.27;;;19.17;;
2055;SDS011;1033;52.560;13.374;2022-08-19T08:41:09;24.30;;;21.90;;
2055;SDS011;1033;52.560;13.374;2022-08-19T08:43:49;21.70;;;19.60;;
2055;SDS011;1033;52.560;13.374;2022-08-19T08:46:21;23.43;;;21.23;;
2055;SDS011;1033;52.560;13.374;2022-08-19T08:49:00;22.23;;;20.13;;
2055;SDS011;1033;52.560;13.374;2022-08-19T08:51:43;22.80;;;20.50;;
2055;SDS011;1033;52.560;13.374;2022-08-19T08:54:28;23.20;;;20.80;;
2055;SDS011;1033;52.560;13.374;2022-08-19T08:57:04;22.00;;;19.90;;
2055;SDS011;1033;52.560;13.374;2022-08-19T08:59:41;23.27;;;20.90;;
2055;SDS011;1033;52.560;13.374;2022-08-19T09:02:17;22.33;;;20.10;;
2055;SDS011;1033;52.560;13.374;2022-08-19T09:04:46;20.40;;;18.40;;
2055;SDS011;1033;52.560;13.374;2022-08-19T09:07:21;20.93;;;18.93;;
2055;SDS011;1033;52.560;13.374;2022-08-19T09:10:18;22.13;;;19.93;;
2055;SDS011;1033;52.560;13.374;2022-08-19T09:12:58;22.87;;;19.90;;
2055;SDS011;1033;52.560;13.374;2022-08-19T09:15:42;19.67;;;17.70;;
2055;SDS011;1033;52.560;13.374;2022-08-19T09:18:16;19.70;;;17.90;;
2055;SDS011;1033;52.560;13.374;2022-08-19T09:20:46;19.97;;;17.10;;
2055;SDS011;1033;52.560;13.374;2022-08-19T09:23:15;20.80;;;18.87;;
2055;SDS011;1033;52.560;13.374;2022-08-19T09:25:54;19.73;;;17.27;;
2055;SDS011;1033;52.560;13.374;2022-08-19T09:28:24;21.07;;;19.00;;
2055;SDS011;1033;52.560;13.374;2022-08-19T09:30:54;21.60;;;19.37;;
2055;SDS011;1033;52.560;13.374;2022-08-19T09:33:23;22.43;;;20.20;;
2055;SDS011;1033;52.560;13.374;2022-08-19T09:36:00;20.07;;;18.13;;
2055;SDS011;1033;52.560;13.374;2022-08-19T09:38:34;18.67;;;16.77;;
2055;SDS011;1033;52.560;13.374;2022-08-19T09:41:12;18.70;;;17.00;;
2055;SDS011;1033;52.560;13.374;2022-08-19T09:43:46;18.70;;;16.33;;
2055;SDS011;1033;52.560;13.374;2022-08-19T09:46:19;19.17;;;17.27;;
2055;SDS011;1033;52.560;13.374;2022-08-19T09:48:49;17.97;;;16.13;;
2055;SDS011;1033;52.560;13.374;2022-08-19T09:51:21;18.77;;;16.90;;
2055;SDS011;1033;52.560;13.374;2022-08-19T09:53:58;18.37;;;16.67;;
2055;SDS011;1033;52.560;13.374;2022-08-19T09:56:32;19.00;;;17.27;;
2055;SDS011;1033;52.560;13.374;2022-08-19T09:59:02;18.47;;;16.20;;
2055;SDS011;1033;52.560;13.374;2022-08-19T10:01:31;19.17;;;17.23;;
2055;SDS011;1033;52.560;13.374;2022-08-19T10:04:01;17.60;;;15.77;;
2055;SDS011;1033;52.560;13.374;2022-08-19T10:06:46;18.10;;;16.23;;
2055;SDS011;1033;52.560;13.374;2022-08-19T10:09:21;18.40;;;16.70;;
2055;SDS011;1033;52.560;13.374;2022-08-19T10:12:02;18.03;;;16.20;;
2055;SDS011;1033;52.560;13.374;2022-08-19T10:14:36;19.53;;;17.03;;
2055;SDS011;1033;52.560;13.374;2022-08-19T10:17:06;17.70;;;15.90;;
2055;SDS011;1033;52.560;13.374;2022-08-19T10:19:47;17.93;;;16.13;;
2055;SDS011;1033;52.560;13.374;2022-08-19T10:22:21;19.63;;;16.23;;
2055;SDS011;1033;52.560;13.374;2022-08-19T10:24:51;18.07;;;16.33;;
2055;SDS011;1033;52.560;13.374;2022-08-19T10:27:22;19.00;;;17.20;;
2055;SDS011;1033;52.560;13.374;2022-08-19T10:29:52;18.77;;;16.77;;
2055;SDS011;1033;52.560;13.374;2022-08-19T10:32:24;17.83;;;16.23;;
2055;SDS011;1033;52.560;13.374;2022-08-19T10:35:00;20.57;;;18.47;;
2055;SDS011;1033;52.560;13.374;2022-08-19T10:37:31;19.80;;;17.90;;
2055;SDS011;1033;52.560;13.374;2022-08-19T10:40:00;20.93;;;18.97;;
2055;SDS011;1033;52.560;13.374;2022-08-19T10:42:34;17.60;;;15.73;;
2055;SDS011;1033;52.560;13.374;2022-08-19T10:45:04;18.83;;;16.93;;
2055;SDS011;1033;52.560;13.374;2022-08-19T10:47:36;20.20;;;16.77;;
2055;SDS011;1033;52.560;13.374;2022-08-19T10:50:06;17.63;;;15.83;;
2055;SDS011;1033;52.560;13.374;2022-08-19T10:52:54;17.30;;;15.60;;
2055;SDS011;1033;52.560;13.374;2022-08-19T10:55:23;17.80;;;16.10;;
2055;SDS011;1033;52.560;13.374;2022-08-19T10:58:12;16.60;;;14.80;;
2055;SDS011;1033;52.560;13.374;2022-08-19T11:00:43;16.83;;;15.13;;
2055;SDS011;1033;52.560;13.374;2022-08-19T11:03:20;18.27;;;16.47;;
2055;SDS011;1033;52.560;13.374;2022-08-19T11:05:56;16.93;;;15.33;;
2055;SDS011;1033;52.560;13.374;2022-08-19T11:08:27;18.47;;;16.40;;
2055;SDS011;1033;52.560;13.374;2022-08-19T11:10:58;17.77;;;15.93;;
2055;SDS011;1033;52.560;13.374;2022-08-19T11:13:33;19.17;;;17.50;;
2055;SDS011;1033;52.560;13.374;2022-08-19T11:16:08;18.53;;;16.77;;
2055;SDS011;1033;52.560;13.374;2022-08-19T11:18:42;19.73;;;17.63;;
2055;SDS011;1033;52.560;13.374;2022-08-19T11:21:14;17.47;;;15.77;;
2055;SDS011;1033;52.560;13.374;2022-08-19T11:23:47;20.13;;;18.03;;
2055;SDS011;1033;52.560;13.374;2022-08-19T11:26:18;16.47;;;14.80;;
2055;SDS011;1033;52.560;13.374;2022-08-19T11:28:51;19.90;;;17.80;;
2055;SDS011;1033;52.560;13.374;2022-08-19T11:31:22;18.20;;;16.30;;
2055;SDS011;1033;52.560;13.374;2022-08-19T11:33:55;22.00;;;16.83;;
2055;SDS011;1033;52.560;13.374;2022-08-19T11:36:26;19.07;;;17.13;;
2055;SDS011;1033;52.560;13.374;2022-08-19T11:38:56;18.33;;;16.30;;
2055;SDS011;1033;52.560;13.374;2022-08-19T11:41:25;15.67;;;14.10;;
2055;SDS011;1033;52.560;13.374;2022-08-19T11:43:56;17.07;;;15.33;;
2055;SDS011;1033;52.560;13.374;2022-08-19T11:46:26;16.70;;;14.80;;
2055;SDS011;1033;52.560;13.374;2022-08-19T11:48:56;16.20;;;14.50;;
2055;SDS011;1033;52.560;13.374;2022-08-19T11:51:26;15.20;;;13.67;;
2055;SDS011;1033;52.560;13.374;2022-08-19T11:53:57;20.17;;;16.03;;
2055;SDS011;1033;52.560;13.374;2022-08-19T11:56:28;15.53;;;13.90;;
2055;SDS011;1033;52.560;13.374;2022-08-19T11:58:58;15.60;;;14.10;;
2055;SDS011;1033;52.560;13.374;2022-08-19T12:01:29;16.33;;;14.37;;
2055;SDS011;1033;52.560;13.374;2022-08-19T12:03:59;17.30;;;14.97;;
2055;SDS011;1033;52.560;13.374;2022-08-19T12:06:31;15.07;;;13.53;;
2055;SDS011;1033;52.560;13.374;2022-08-19T12:09:02;14.20;;;12.90;;
2055;SDS011;1033;52.560;13.374;2022-08-19T12:11:35;13.23;;;12.03;;
2055;SDS011;1033;52.560;13.374;2022-08-19T12:14:06;12.90;;;11.80;;
2055;SDS011;1033;52.560;13.374;2022-08-19T12:16:43;13.70;;;12.30;;
2055;SDS011;1033;52.560;13.374;2022-08-19T12:19:17;14.10;;;12.33;;
2055;SDS011;1033;52.560;13.374;2022-08-19T12:21:48;13.20;;;11.83;;
2055;SDS011;1033;52.560;13.374;2022-08-19T12:24:18;13.33;;;11.93;;
2055;SDS011;1033;52.560;13.374;2022-08-19T12:26:50;13.60;;;12.37;;
2055;SDS011;1033;52.560;13.374;2022-08-19T12:29:21;13.53;;;12.27;;
2055;SDS011;1033;52.560;13.374;2022-08-19T12:31:55;12.63;;;11.37;;
2055;SDS011;1033;52.560;13.374;2022-08-19T12:34:30;10.57;;;9.60;;
2055;SDS011;1033;52.560;13.374;2022-08-19T12:37:01;13.10;;;11.40;;
2055;SDS011;1033;52.560;13.374;2022-08-19T12:39:37;12.40;;;11.20;;
2055;SDS011;1033;52.560;13.374;2022-08-19T12:42:09;11.83;;;10.60;;
2055;SDS011;1033;52.560;13.374;2022-08-19T12:44:42;13.27;;;11.87;;
2055;SDS011;1033;52.560;13.374;2022-08-19T12:47:12;12.10;;;11.10;;
2055;SDS011;1033;52.560;13.374;2022-08-19T12:49:45;12.40;;;11.30;;
2055;SDS011;1033;52.560;13.374;2022-08-19T12:52:21;12.73;;;11.53;;
2055;SDS011;1033;52.560;13.374;2022-08-19T12:54:54;13.10;;;11.73;;
2055;SDS011;1033;52.560;13.374;2022-08-19T12:57:25;14.10;;;12.60;;
2055;SDS011;1033;52.560;13.374;2022-08-19T13:00:02;13.40;;;12.17;;
2055;SDS011;1033;52.560;13.374;2022-08-19T13:02:37;14.20;;;12.90;;
2055;SDS011;1033;52.560;13.374;2022-08-19T13:05:08;13.20;;;12.00;;
2055;SDS011;1033;52.560;13.374;2022-08-19T13:07:40;12.87;;;11.77;;
2055;SDS011;1033;52.560;13.374;2022-08-19T13:10:12;13.67;;;12.43;;
2055;SDS011;1033;52.560;13.374;2022-08-19T13:12:45;13.97;;;12.70;;
2055;SDS011;1033;52.560;13.374;2022-08-19T13:15:18;14.10;;;12.90;;
2055;SDS011;1033;52.560;13.374;2022-08-19T13:17:50;11.93;;;10.80;;
2055;SDS011;1033;52.560;13.374;2022-08-19T13:20:22;14.33;;;12.93;;
2055;SDS011;1033;52.560;13.374;2022-08-19T13:22:53;15.67;;;14.03;;
2055;SDS011;1033;52.560;13.374;2022-08-19T13:25:23;14.40;;;13.10;;
2055;SDS011;1033;52.560;13.374;2022-08-19T13:27:53;13.33;;;12.03;;
2055;SDS011;1033;52.560;13.374;2022-08-19T13:30:24;14.43;;;13.03;;
2055;SDS011;1033;52.560;13.374;2022-08-19T13:33:10;14.10;;;12.63;;
2055;SDS011;1033;52.560;13.374;2022-08-19T13:35:43;13.93;;;12.67;;
2055;SDS011;1033;52.560;13.374;2022-08-19T13:38:17;14.07;;;12.70;;
2055;SDS011;1033;52.560;13.374;2022-08-19T13:40:48;15.57;;;14.10;;
2055;SDS011;1033;52.560;13.374;2022-08-19T13:43:19;13.63;;;12.40;;
2055;SDS011;1033;52.560;13.374;2022-08-19T13:45:54;12.80;;;11.63;;
2055;SDS011;1033;52.560;13.374;2022-08-19T13:48:24;14.23;;;13.00;;
2055;SDS011;1033;52.560;13.374;2022-08-19T13:50:54;14.93;;;13.10;;
2055;SDS011;1033;52.560;13.374;2022-08-19T13:53:23;14.60;;;13.30;;
2055;SDS011;1033;52.560;13.374;2022-08-19T13:55:52;14.50;;;13.00;;
2055;SDS011;1033;52.560;13.374;2022-08-19T13:58:21;14.43;;;13.23;;
2055;SDS011;1033;52.560;13.374;2022-08-19T14:00:50;17.17;;;14.53;;
2055;SDS011;1033;52.560;13.374;2022-08-19T14:03:21;13.37;;;12.27;;
2055;SDS011;1033;52.560;13.374;2022-08-19T14:05:50;14.50;;;13.20;;
2055;SDS011;1033;52.560;13.374;2022-08-19T14:08:19;13.90;;;12.70;;
2055;SDS011;1033;52.560;13.374;2022-08-19T14:10:48;16.27;;;14.60;;
2055;SDS011;1033;52.560;13.374;2022-08-19T14:13:18;14.83;;;13.43;;
2055;SDS011;1033;52.560;13.374;2022-08-19T14:15:50;15.10;;;13.70;;
2055;SDS011;1033;52.560;13.374;2022-08-19T14:18:21;13.67;;;12.37;;
2055;SDS011;1033;52.560;13.374;2022-08-19T14:20:54;15.00;;;13.70;;
2055;SDS011;1033;52.560;13.374;2022-08-19T14:23:24;14.17;;;12.90;;
2055;SDS011;1033;52.560;13.374;2022-08-19T14:25:53;17.90;;;16.50;;
2055;SDS011;1033;52.560;13.374;2022-08-19T14:28:31;13.53;;;12.33;;
2055;SDS011;1033;52.560;13.374;2022-08-19T14:31:00;15.23;;;12.10;;
2055;SDS011;1033;52.560;13.374;2022-08-19T14:33:30;15.27;;;13.87;;
2055;SDS011;1033;52.560;13.374;2022-08-19T14:36:00;13.57;;;12.30;;
2055;SDS011;1033;52.560;13.374;2022-08-19T14:38:29;12.40;;;11.20;;
2055;SDS011;1033;52.560;13.374;2022-08-19T14:41:05;12.83;;;11.70;;
2055;SDS011;1033;52.560;13.374;2022-08-19T14:43:38;12.37;;;11.20;;
2055;SDS011;1033;52.560;13.374;2022-08-19T14:46:07;11.50;;;10.40;;
2055;SDS011;1033;52.560;13.374;2022-08-19T14:48:38;14.60;;;13.23;;
2055;SDS011;1033;52.560;13.374;2022-08-19T14:51:07;12.47;;;11.30;;
2055;SDS011;1033;52.560;13.374;2022-08-19T14:53:37;12.33;;;11.13;;
2055;SDS011;1033;52.560;13.374;2022-08-19T14:56:07;12.87;;;11.63;;
2055;SDS011;1033;52.560;13.374;2022-08-19T14:58:38;13.03;;;11.77;;
2055;SDS011;1033;52.560;13.374;2022-08-19T15:01:09;12.07;;;10.90;;
2055;SDS011;1033;52.560;13.374;2022-08-19T15:03:41;13.30;;;10.87;;
2055;SDS011;1033;52.560;13.374;2022-08-19T15:06:10;11.30;;;10.30;;